Time;durP1;ratioP1;P1;durP2;ratioP2;P2;SDS_P1;SDS_P2;PMS_P1;PMS_P2;Temp;Humidity;BMP_temperature;BMP_pressure;BME280_temperature;BME280_humidity;BME280_pressure;Samples;Min_cycle;Max_cycle;Signal;HPM_P1;HPM_P2
2023/11/20 00:00:39;;;;;;;21.17;3.50;;;12.10;95.70;;;;;;4992394;28;20113;-30
2023/11/20 00:03:05;;;;;;;19.95;3.92;;;12.00;95.70;;;;;;4992099;28;20096;-33
2023/11/20 00:05:30;;;;;;;14.70;3.25;;;12.10;95.70;;;;;;4995280;28;20530;-37
2023/11/20 00:07:56;;;;;;;17.10;3.33;;;12.00;95.70;;;;;;4996070;28;20026;-35
2023/11/20 00:10:22;;;;;;;19.90;3.88;;;12.10;95.70;;;;;;4996392;28;20178;-35
2023/11/20 00:12:47;;;;;;;20.15;4.18;;;12.00;95.70;;;;;;4996221;28;20456;-33
2023/11/20 00:15:13;;;;;;;23.10;3.80;;;12.00;95.70;;;;;;4996143;28;20018;-38
2023/11/20 00:17:38;;;;;;;28.98;5.28;;;12.00;95.70;;;;;;4995948;28;20042;-38
2023/11/20 00:20:06;;;;;;;22.13;5.10;;;12.00;95.80;;;;;;4996063;28;20023;-33
2023/11/20 00:22:32;;;;;;;31.67;4.97;;;12.00;95.80;;;;;;4996152;28;20029;-32
2023/11/20 00:24:57;;;;;;;22.13;4.03;;;12.00;95.80;;;;;;4995733;28;20441;-33
2023/11/20 00:27:23;;;;;;;19.80;3.85;;;12.00;95.80;;;;;;4995902;28;20073;-32
2023/11/20 00:29:48;;;;;;;18.92;3.85;;;12.00;95.80;;;;;;4995649;28;20046;-32
2023/11/20 00:32:14;;;;;;;21.90;3.58;;;12.00;95.90;;;;;;4995781;28;20030;-37
2023/11/20 00:34:40;;;;;;;21.80;3.70;;;11.90;95.80;;;;;;4995986;28;20050;-36
2023/11/20 00:37:05;;;;;;;21.15;4.35;;;12.00;95.90;;;;;;4995699;28;20022;-34
2023/11/20 00:39:31;;;;;;;16.88;3.40;;;12.00;95.90;;;;;;4995621;28;20076;-36
2023/11/20 00:41:56;;;;;;;21.27;3.95;;;12.00;95.90;;;;;;4995819;28;20105;-34
2023/11/20 00:44:22;;;;;;;21.88;4.22;;;11.90;95.80;;;;;;4995625;28;20030;-37
2023/11/20 00:46:48;;;;;;;19.63;3.90;;;12.00;95.90;;;;;;4995360;28;20037;-36
2023/11/20 00:49:13;;;;;;;18.95;3.97;;;11.90;95.80;;;;;;4995397;28;20027;-35
2023/11/20 00:51:39;;;;;;;17.27;3.65;;;11.90;95.90;;;;;;4995444;28;20122;-38
2023/11/20 00:54:05;;;;;;;14.05;3.45;;;11.90;95.90;;;;;;4995365;28;20037;-39
2023/11/20 00:56:30;;;;;;;16.55;3.63;;;11.90;95.90;;;;;;4995298;28;20053;-37
2023/11/20 00:58:56;;;;;;;12.68;3.20;;;11.90;95.90;;;;;;4995143;28;20479;-35
2023/11/20 01:01:21;;;;;;;12.98;3.10;;;11.90;95.90;;;;;;4995698;28;20514;-36
2023/11/20 01:03:47;;;;;;;18.10;3.38;;;11.90;96.00;;;;;;4995489;28;20018;-37
2023/11/20 01:06:13;;;;;;;13.48;2.95;;;11.90;96.00;;;;;;4995236;28;20105;-31
2023/11/20 01:08:38;;;;;;;11.27;3.40;;;11.90;95.90;;;;;;4995259;28;20467;-37
2023/11/20 01:11:08;;;;;;;13.77;3.10;;;11.90;96.00;;;;;;4995150;28;20387;-34
2023/11/20 01:13:35;;;;;;;16.33;4.40;;;11.90;96.00;;;;;;4995130;28;20045;-31
2023/11/20 01:16:00;;;;;;;14.63;3.65;;;11.80;96.00;;;;;;4994050;28;20077;-33
2023/11/20 01:18:26;;;;;;;12.25;3.42;;;11.80;96.00;;;;;;4994681;28;20034;-31
2023/11/20 01:20:51;;;;;;;10.68;2.45;;;11.80;96.00;;;;;;4995112;28;20050;-31
2023/11/20 01:23:17;;;;;;;14.88;3.15;;;11.80;96.00;;;;;;4994920;28;20054;-35
2023/11/20 01:25:42;;;;;;;12.30;2.92;;;11.80;96.00;;;;;;4994775;28;20387;-37
2023/11/20 01:28:08;;;;;;;14.13;3.25;;;11.80;96.00;;;;;;4995012;28;20076;-32
2023/11/20 01:30:33;;;;;;;16.45;3.15;;;11.80;96.10;;;;;;4994646;28;20053;-33
2023/11/20 01:32:59;;;;;;;15.80;4.05;;;11.80;96.00;;;;;;4994697;28;20573;-33
2023/11/20 01:35:24;;;;;;;15.27;3.97;;;11.80;96.10;;;;;;4994786;28;20061;-36
2023/11/20 01:37:50;;;;;;;16.73;3.70;;;11.80;96.10;;;;;;4994446;28;20057;-40
2023/11/20 01:40:19;;;;;;;16.42;3.70;;;11.80;96.10;;;;;;4994519;28;20108;-39
2023/11/20 01:42:44;;;;;;;21.30;4.55;;;11.80;96.40;;;;;;4994585;28;20084;-37
2023/11/20 01:45:10;;;;;;;17.55;4.35;;;11.70;96.10;;;;;;4993243;28;20022;-32
2023/11/20 01:47:37;;;;;;;15.80;3.45;;;11.70;96.10;;;;;;4994455;28;20026;-37
2023/11/20 01:50:06;;;;;;;13.50;3.63;;;11.70;96.10;;;;;;4994227;28;20034;-36
2023/11/20 01:52:33;;;;;;;13.88;3.28;;;11.70;96.10;;;;;;4994086;28;20418;-37
2023/11/20 01:54:59;;;;;;;14.93;3.80;;;11.70;96.20;;;;;;4994201;28;20033;-34
2023/11/20 01:57:25;;;;;;;18.98;4.20;;;11.70;96.20;;;;;;4994255;28;20030;-37
2023/11/20 01:59:50;;;;;;;22.00;4.72;;;11.70;96.20;;;;;;4994428;28;20028;-32
2023/11/20 02:02:16;;;;;;;20.65;4.00;;;11.70;96.20;;;;;;4993539;28;20034;-36
2023/11/20 02:04:44;;;;;;;17.25;4.07;;;11.70;96.20;;;;;;4994043;28;20176;-35
2023/11/20 02:07:10;;;;;;;14.98;3.70;;;11.70;96.20;;;;;;4993975;28;20084;-35
2023/11/20 02:09:36;;;;;;;17.77;3.88;;;11.70;96.20;;;;;;4994023;28;20034;-39
2023/11/20 02:12:01;;;;;;;14.55;3.05;;;11.70;96.20;;;;;;4993856;28;20037;-36
2023/11/20 02:14:27;;;;;;;11.75;3.05;;;11.60;96.20;;;;;;4993912;28;20396;-35
2023/11/20 02:16:53;;;;;;;16.55;3.22;;;11.60;96.20;;;;;;4993789;28;20133;-34
2023/11/20 02:19:18;;;;;;;20.20;4.13;;;11.70;96.20;;;;;;4992231;28;20022;-35
2023/11/20 02:21:44;;;;;;;20.55;3.63;;;11.60;96.10;;;;;;4993763;28;20057;-34
2023/11/20 02:24:11;;;;;;;17.80;3.10;;;11.60;96.20;;;;;;4992518;28;20153;-35
2023/11/20 02:26:57;;;;;;;22.90;3.70;;;11.60;96.20;;;;;;4993547;28;20068;-36
2023/11/20 02:29:28;;;;;;;13.55;2.58;;;11.60;96.20;;;;;;4993529;28;20046;-36
2023/11/20 02:31:54;;;;;;;14.90;3.13;;;11.50;96.20;;;;;;4992380;28;20173;-38
2023/11/20 02:34:19;;;;;;;14.27;3.00;;;11.50;96.20;;;;;;4993621;28;20045;-34
2023/11/20 02:36:45;;;;;;;16.58;3.63;;;11.50;96.20;;;;;;4993526;28;20545;-35
2023/11/20 02:39:10;;;;;;;11.38;2.75;;;11.50;96.20;;;;;;4993412;28;20057;-34
2023/11/20 02:41:36;;;;;;;18.40;3.10;;;11.50;96.20;;;;;;4993521;28;20058;-34
2023/11/20 02:44:03;;;;;;;16.15;2.60;;;11.50;96.20;;;;;;4993685;28;20034;-37
2023/11/20 02:46:28;;;;;;;16.80;2.60;;;11.50;96.20;;;;;;4993194;28;20438;-36
2023/11/20 02:48:54;;;;;;;15.90;2.95;;;11.50;96.20;;;;;;4993092;28;20039;-37
2023/11/20 02:51:20;;;;;;;13.35;2.63;;;11.50;96.20;;;;;;4993045;28;20130;-34
2023/11/20 02:53:45;;;;;;;18.15;2.90;;;11.40;96.20;;;;;;4993218;28;20101;-35
2023/11/20 02:56:11;;;;;;;13.68;2.60;;;11.40;96.20;;;;;;4993152;28;20022;-37
2023/11/20 02:58:37;;;;;;;15.32;2.90;;;11.40;96.20;;;;;;4993235;28;20023;-39
2023/11/20 03:01:03;;;;;;;18.75;3.00;;;11.40;96.20;;;;;;4992962;28;20459;-34
2023/11/20 03:03:28;;;;;;;15.32;2.92;;;11.40;96.20;;;;;;4993267;28;20390;-38
2023/11/20 03:05:54;;;;;;;13.48;2.78;;;11.40;96.20;;;;;;4992923;28;20026;-35
2023/11/20 03:08:20;;;;;;;13.63;2.58;;;11.40;96.20;;;;;;4992801;28;20093;-32
2023/11/20 03:10:45;;;;;;;14.55;2.65;;;11.40;96.20;;;;;;4992745;28;20115;-35
2023/11/20 03:13:12;;;;;;;19.33;2.85;;;11.40;96.20;;;;;;4992754;28;20058;-35
2023/11/20 03:15:38;;;;;;;12.90;2.83;;;11.40;96.20;;;;;;4992751;28;20045;-40
2023/11/20 03:18:04;;;;;;;17.70;2.90;;;11.40;96.20;;;;;;4992726;28;20022;-35
2023/11/20 03:20:29;;;;;;;14.13;2.22;;;11.40;96.20;;;;;;4992633;28;20030;-37
2023/11/20 03:22:55;;;;;;;9.45;2.45;;;11.40;96.30;;;;;;4991523;28;20030;-37
2023/11/20 03:25:21;;;;;;;13.75;2.50;;;11.40;96.30;;;;;;4992623;28;20030;-33
2023/11/20 03:27:47;;;;;;;18.52;2.72;;;11.40;96.50;;;;;;4992768;28;20376;-34
2023/11/20 03:30:12;;;;;;;15.10;2.97;;;11.40;96.20;;;;;;4991967;28;20046;-37
2023/11/20 03:32:38;;;;;;;17.58;2.70;;;11.40;96.20;;;;;;4992443;28;20447;-37
2023/11/20 03:35:07;;;;;;;19.95;3.67;;;11.40;96.20;;;;;;4992455;28;20462;-37
2023/11/20 03:37:34;;;;;;;15.15;3.85;;;11.40;96.20;;;;;;4992447;28;20038;-39
2023/11/20 03:39:59;;;;;;;16.15;2.95;;;11.40;96.20;;;;;;4991653;28;20018;-35
2023/11/20 03:42:25;;;;;;;17.25;3.13;;;11.40;96.20;;;;;;4992426;28;20035;-36
2023/11/20 03:44:52;;;;;;;15.93;3.10;;;11.40;96.20;;;;;;4992343;28;20030;-34
2023/11/20 03:47:18;;;;;;;18.05;3.30;;;11.40;96.20;;;;;;4992364;28;20036;-35
2023/11/20 03:49:43;;;;;;;18.08;3.40;;;11.40;96.20;;;;;;4992491;28;20026;-36
2023/11/20 03:52:09;;;;;;;22.15;3.45;;;11.40;96.20;;;;;;4992116;28;20034;-41
2023/11/20 03:54:35;;;;;;;19.85;3.72;;;11.30;96.20;;;;;;4992411;28;20031;-41
2023/11/20 03:57:00;;;;;;;15.35;3.50;;;11.40;96.20;;;;;;4992394;28;20030;-40
2023/11/20 03:59:26;;;;;;;14.95;2.80;;;11.40;96.20;;;;;;4992251;28;20031;-39
2023/11/20 04:01:51;;;;;;;17.05;2.85;;;11.40;96.20;;;;;;4992179;28;20042;-35
2023/11/20 04:04:17;;;;;;;21.02;3.78;;;11.40;96.20;;;;;;4992113;28;20038;-41
2023/11/20 04:06:42;;;;;;;22.50;3.20;;;11.40;96.20;;;;;;4992178;28;20045;-34
2023/11/20 04:09:08;;;;;;;16.67;3.45;;;11.40;96.20;;;;;;4992165;28;20136;-36
2023/11/20 04:11:35;;;;;;;14.32;2.75;;;11.40;96.20;;;;;;4992225;28;20355;-39
2023/11/20 04:14:00;;;;;;;13.70;2.88;;;11.40;96.10;;;;;;4992028;28;20032;-38
2023/11/20 04:16:26;;;;;;;19.00;2.83;;;11.40;96.10;;;;;;4992430;28;20034;-35
2023/11/20 04:18:52;;;;;;;13.48;2.90;;;11.40;96.10;;;;;;4991727;28;20096;-36
2023/11/20 04:21:17;;;;;;;22.38;3.92;;;11.40;96.00;;;;;;4992283;28;20106;-34
2023/11/20 04:23:43;;;;;;;14.32;3.05;;;11.40;96.00;;;;;;4992279;28;20037;-34
2023/11/20 04:26:09;;;;;;;14.32;3.00;;;11.40;95.90;;;;;;4992076;28;20037;-39
2023/11/20 04:28:35;;;;;;;20.05;3.72;;;11.40;95.90;;;;;;4991955;28;20573;-36
2023/11/20 04:31:01;;;;;;;20.08;3.47;;;11.40;95.90;;;;;;4992166;28;20027;-34
2023/11/20 04:33:27;;;;;;;17.48;2.78;;;11.40;95.80;;;;;;4992253;28;20355;-32
2023/11/20 04:35:53;;;;;;;13.98;3.00;;;11.30;95.80;;;;;;4992110;28;20037;-35
2023/11/20 04:38:18;;;;;;;14.52;2.90;;;11.40;95.80;;;;;;4991988;28;20034;-33
2023/11/20 04:40:48;;;;;;;9.93;2.03;;;11.40;95.70;;;;;;4992207;28;20026;-32
2023/11/20 04:43:14;;;;;;;19.70;2.42;;;11.40;95.70;;;;;;4992468;28;20356;-34
2023/11/20 04:45:39;;;;;;;17.63;3.33;;;11.40;95.70;;;;;;4991762;28;20034;-37
2023/11/20 04:48:05;;;;;;;15.73;2.38;;;11.40;95.60;;;;;;4991713;28;20044;-39
2023/11/20 04:50:31;;;;;;;15.88;2.63;;;11.40;95.60;;;;;;4992996;28;20117;-36
2023/11/20 04:52:56;;;;;;;15.02;2.60;;;11.40;95.50;;;;;;4994108;28;20089;-37
2023/11/20 04:55:22;;;;;;;14.35;2.55;;;11.40;95.50;;;;;;4995431;28;20037;-38
2023/11/20 04:57:47;;;;;;;17.40;2.90;;;11.40;95.50;;;;;;4995333;28;20023;-36
2023/11/20 05:00:13;;;;;;;14.23;2.85;;;11.40;95.40;;;;;;4995365;28;20034;-37
2023/11/20 05:02:39;;;;;;;13.45;3.00;;;11.40;95.40;;;;;;4995339;28;20038;-38
2023/11/20 05:05:06;;;;;;;18.85;3.13;;;11.40;95.30;;;;;;4995407;28;20100;-44
2023/11/20 05:07:33;;;;;;;13.35;3.10;;;11.40;95.30;;;;;;4995103;28;20061;-47
2023/11/20 05:10:00;;;;;;;12.15;2.67;;;11.40;95.20;;;;;;4995605;28;20433;-40
2023/11/20 05:12:25;;;;;;;13.30;2.72;;;11.40;95.20;;;;;;4995823;28;20060;-32
2023/11/20 05:14:51;;;;;;;17.80;3.42;;;11.40;95.20;;;;;;4995224;28;20026;-36
2023/11/20 05:17:20;;;;;;;13.18;2.88;;;11.30;95.10;;;;;;4994695;28;20037;-39
2023/11/20 05:19:46;;;;;;;20.48;2.92;;;11.40;95.10;;;;;;4994356;28;20058;-43
2023/11/20 05:22:12;;;;;;;16.02;2.83;;;11.40;95.10;;;;;;4995353;28;20419;-35
2023/11/20 05:24:40;;;;;;;13.73;2.45;;;11.40;95.00;;;;;;4995172;28;20034;-37
2023/11/20 05:27:06;;;;;;;10.90;2.28;;;11.40;95.00;;;;;;4994823;28;20034;-50
2023/11/20 05:29:32;;;;;;;16.13;3.03;;;11.40;95.00;;;;;;4994381;28;20076;-36
2023/11/20 05:31:58;;;;;;;9.75;2.33;;;11.30;94.90;;;;;;4994613;28;20110;-39
2023/11/20 05:34:23;;;;;;;13.00;2.78;;;11.40;94.90;;;;;;4994709;28;20109;-37
2023/11/20 05:36:50;;;;;;;19.10;2.97;;;11.40;94.80;;;;;;4994804;28;20061;-36
2023/11/20 05:39:18;;;;;;;14.13;2.55;;;11.30;94.80;;;;;;4994837;28;20022;-37
2023/11/20 05:41:44;;;;;;;13.73;3.08;;;11.40;94.80;;;;;;4994460;28;20026;-37
2023/11/20 05:44:10;;;;;;;9.82;2.55;;;11.40;94.80;;;;;;4994768;28;20030;-38
2023/11/20 05:46:36;;;;;;;16.15;3.15;;;11.40;94.80;;;;;;4994654;28;20030;-41
2023/11/20 05:49:01;;;;;;;14.07;2.97;;;11.30;94.70;;;;;;4994314;28;20118;-37
2023/11/20 05:51:27;;;;;;;14.52;2.50;;;11.30;94.70;;;;;;4994368;28;20461;-36
2023/11/20 05:53:53;;;;;;;12.07;2.45;;;11.30;94.70;;;;;;4994377;28;20042;-35
2023/11/20 05:56:18;;;;;;;18.77;2.72;;;11.40;94.70;;;;;;4994470;28;20033;-36
2023/11/20 05:58:44;;;;;;;17.13;3.25;;;11.40;94.70;;;;;;4994301;28;20054;-34
2023/11/20 06:01:10;;;;;;;16.85;3.10;;;11.40;94.60;;;;;;4992908;28;20027;-39
2023/11/20 06:03:35;;;;;;;15.20;2.85;;;11.30;94.60;;;;;;4993751;28;20050;-35
2023/11/20 06:06:01;;;;;;;12.35;2.85;;;11.30;94.60;;;;;;4993024;28;20022;-33
2023/11/20 06:08:26;;;;;;;8.10;2.22;;;11.40;94.60;;;;;;4994230;28;20030;-32
2023/11/20 06:10:52;;;;;;;16.85;2.50;;;11.30;94.50;;;;;;4994150;28;20387;-40
2023/11/20 06:13:18;;;;;;;13.75;2.78;;;11.30;94.50;;;;;;4994093;28;20057;-32
2023/11/20 06:15:44;;;;;;;15.77;2.50;;;11.30;94.50;;;;;;4994339;28;20496;-33
2023/11/20 06:18:09;;;;;;;14.60;3.25;;;11.30;94.50;;;;;;4993786;28;20105;-35
2023/11/20 06:20:35;;;;;;;15.63;3.08;;;11.30;94.50;;;;;;4994089;28;20383;-32
2023/11/20 06:23:01;;;;;;;17.55;3.28;;;11.30;94.40;;;;;;4993927;28;20487;-34
2023/11/20 06:25:26;;;;;;;15.02;2.75;;;11.30;94.40;;;;;;4993682;28;20036;-36
2023/11/20 06:27:52;;;;;;;16.85;3.35;;;11.30;94.40;;;;;;4993588;28;20048;-37
2023/11/20 06:30:18;;;;;;;21.35;3.78;;;11.30;94.40;;;;;;4993520;28;20134;-35
2023/11/20 06:32:43;;;;;;;14.45;2.83;;;11.30;94.40;;;;;;4993534;28;20030;-37
2023/11/20 06:35:09;;;;;;;13.32;2.60;;;11.30;94.40;;;;;;4993553;28;20027;-33
2023/11/20 06:37:35;;;;;;;15.40;3.17;;;11.30;94.40;;;;;;4991997;28;20097;-32
2023/11/20 06:40:00;;;;;;;19.05;3.22;;;11.30;94.40;;;;;;4993275;28;20026;-37
2023/11/20 06:42:26;;;;;;;13.35;3.15;;;11.20;94.30;;;;;;4993433;28;20034;-34
2023/11/20 06:44:54;;;;;;;15.30;2.67;;;11.20;94.40;;;;;;4993323;28;20053;-34
2023/11/20 06:47:21;;;;;;;10.60;2.55;;;11.20;94.30;;;;;;4991700;28;20173;-32
2023/11/20 06:49:46;;;;;;;15.70;3.20;;;11.20;94.30;;;;;;4993290;28;20038;-36
2023/11/20 06:52:13;;;;;;;10.63;2.78;;;11.20;94.40;;;;;;4993363;28;20030;-32
2023/11/20 06:54:39;;;;;;;12.75;2.65;;;11.20;94.30;;;;;;4993392;28;20030;-34
2023/11/20 06:57:04;;;;;;;17.63;3.30;;;11.20;94.30;;;;;;4993042;28;20027;-32
2023/11/20 06:59:32;;;;;;;15.63;3.22;;;11.20;94.30;;;;;;4993084;28;20049;-38
2023/11/20 07:01:58;;;;;;;15.18;2.67;;;11.20;94.30;;;;;;4993558;28;20049;-35
2023/11/20 07:04:23;;;;;;;22.20;3.47;;;11.20;94.20;;;;;;4993184;28;20435;-38
2023/11/20 07:06:49;;;;;;;13.73;2.80;;;11.20;94.20;;;;;;4993074;28;20061;-38
2023/11/20 07:09:15;;;;;;;18.83;3.03;;;11.20;94.10;;;;;;4992968;28;20030;-32
2023/11/20 07:11:41;;;;;;;17.20;2.95;;;11.20;94.10;;;;;;4993048;28;20030;-32
2023/11/20 07:14:08;;;;;;;22.30;3.40;;;11.20;94.10;;;;;;4992200;28;20026;-36
2023/11/20 07:16:37;;;;;;;19.08;3.08;;;11.10;94.20;;;;;;4992949;28;20048;-32
2023/11/20 07:19:04;;;;;;;19.83;3.03;;;11.20;94.30;;;;;;4991421;28;20583;-32
2023/11/20 07:21:30;;;;;;;17.23;3.00;;;11.20;94.30;;;;;;4992977;28;20065;-34
2023/11/20 07:23:57;;;;;;;14.38;3.33;;;11.10;94.30;;;;;;4992786;28;20061;-38
2023/11/20 07:26:23;;;;;;;14.48;2.92;;;11.10;94.30;;;;;;4992609;28;20038;-37
2023/11/20 07:28:49;;;;;;;16.33;3.08;;;11.10;94.30;;;;;;4992647;28;20042;-32
2023/11/20 07:31:29;;;;;;;21.20;3.38;;;11.10;94.30;;;;;;4992461;28;20081;-30
2023/11/20 07:33:54;;;;;;;20.00;3.90;;;11.10;94.30;;;;;;4993005;28;20026;-33
2023/11/20 07:36:21;;;;;;;13.57;2.85;;;11.10;94.40;;;;;;4992767;28;20022;-35
2023/11/20 07:38:47;;;;;;;14.73;2.97;;;11.00;94.40;;;;;;4992967;28;20025;-36
2023/11/20 07:41:16;;;;;;;14.20;3.00;;;11.00;94.40;;;;;;4992627;28;20064;-39
2023/11/20 07:43:42;;;;;;;14.32;2.60;;;11.00;94.40;;;;;;4992894;28;20018;-38
2023/11/20 07:46:09;;;;;;;13.43;3.10;;;11.10;94.50;;;;;;4992790;28;20172;-35
2023/11/20 07:48:35;;;;;;;17.48;3.05;;;11.10;94.50;;;;;;4991233;28;20383;-37
2023/11/20 07:51:01;;;;;;;16.58;2.70;;;11.10;94.40;;;;;;4992766;28;20422;-37
2023/11/20 07:53:27;;;;;;;14.35;2.70;;;11.10;94.40;;;;;;4992855;28;20058;-39
2023/11/20 07:55:52;;;;;;;15.65;2.83;;;11.10;94.40;;;;;;4992459;28;20109;-36
2023/11/20 07:58:18;;;;;;;14.32;3.55;;;11.20;94.40;;;;;;4990825;28;20026;-41
2023/11/20 08:00:44;;;;;;;12.90;2.70;;;11.20;94.40;;;;;;4992519;28;20086;-35
2023/11/20 08:03:09;;;;;;;19.45;2.80;;;11.20;94.40;;;;;;4992658;28;20085;-34
2023/11/20 08:05:35;;;;;;;13.32;2.95;;;11.30;94.40;;;;;;4992519;28;20026;-35
2023/11/20 08:08:01;;;;;;;15.45;2.90;;;11.30;94.30;;;;;;4992234;28;20526;-33
2023/11/20 08:10:27;;;;;;;12.95;2.80;;;11.40;94.30;;;;;;4992981;28;20075;-37
2023/11/20 08:12:52;;;;;;;13.88;2.47;;;11.40;94.30;;;;;;4992218;28;20041;-32
2023/11/20 08:15:18;;;;;;;16.75;3.35;;;11.40;94.20;;;;;;4992437;28;20030;-32
2023/11/20 08:17:44;;;;;;;16.95;3.03;;;11.50;94.20;;;;;;4992166;28;20033;-35
2023/11/20 08:20:10;;;;;;;16.52;3.42;;;11.40;94.10;;;;;;4992501;28;20030;-34
2023/11/20 08:22:37;;;;;;;12.27;2.92;;;11.40;94.10;;;;;;4992355;28;20026;-40
2023/11/20 08:25:03;;;;;;;24.38;3.67;;;11.40;94.00;;;;;;4992722;28;20080;-33
2023/11/20 08:27:29;;;;;;;12.18;2.88;;;11.30;93.90;;;;;;4996112;28;20080;-37
2023/11/20 08:29:55;;;;;;;16.52;3.42;;;11.30;93.90;;;;;;4995910;28;20042;-32
2023/11/20 08:32:21;;;;;;;13.63;2.95;;;11.20;94.00;;;;;;4995990;28;20497;-35
2023/11/20 08:34:46;;;;;;;12.93;3.00;;;11.30;94.10;;;;;;4996021;28;20173;-38
2023/11/20 08:37:13;;;;;;;18.67;3.70;;;11.30;94.00;;;;;;4996125;28;20029;-35
2023/11/20 08:39:39;;;;;;;13.07;3.22;;;11.30;93.80;;;;;;4995882;28;20034;-39
2023/11/20 08:42:05;;;;;;;16.50;4.00;;;11.30;93.80;;;;;;4995830;28;20023;-38
2023/11/20 08:44:31;;;;;;;17.25;3.85;;;11.30;93.80;;;;;;4996061;28;20037;-36
2023/11/20 08:46:56;;;;;;;16.83;3.45;;;11.30;93.80;;;;;;4996057;28;20077;-39
2023/11/20 08:49:24;;;;;;;16.80;3.08;;;11.30;93.70;;;;;;4995908;28;20367;-37
2023/11/20 08:51:49;;;;;;;16.08;2.70;;;11.30;93.70;;;;;;4995533;28;20022;-42
2023/11/20 08:54:15;;;;;;;18.80;3.05;;;11.40;93.70;;;;;;4996052;28;20411;-37
2023/11/20 08:56:41;;;;;;;21.38;3.53;;;11.30;93.60;;;;;;4994447;28;20028;-40
2023/11/20 08:59:07;;;;;;;15.73;3.20;;;11.40;93.60;;;;;;4995553;28;20081;-34
2023/11/20 09:01:33;;;;;;;17.35;3.08;;;11.40;93.50;;;;;;4995524;28;20471;-38
2023/11/20 09:04:00;;;;;;;12.27;3.35;;;11.50;93.60;;;;;;4995526;28;20026;-38
2023/11/20 09:06:26;;;;;;;16.27;3.00;;;11.50;93.40;;;;;;4995357;28;20022;-37
2023/11/20 09:08:52;;;;;;;15.55;3.05;;;11.50;93.40;;;;;;4995325;28;20029;-38
2023/11/20 09:11:17;;;;;;;16.05;3.42;;;11.50;93.40;;;;;;4995638;28;20023;-36
2023/11/20 09:13:43;;;;;;;15.68;3.10;;;11.60;93.40;;;;;;4995641;28;20524;-37
2023/11/20 09:16:09;;;;;;;14.60;3.25;;;11.60;93.40;;;;;;4995239;28;20044;-38
2023/11/20 09:18:34;;;;;;;23.50;3.90;;;11.70;93.30;;;;;;4995084;28;20018;-40
2023/11/20 09:21:02;;;;;;;19.70;3.30;;;11.70;93.10;;;;;;4995390;28;20026;-40
2023/11/20 09:23:28;;;;;;;16.98;3.35;;;11.80;93.20;;;;;;4995136;28;20026;-39
2023/11/20 09:25:53;;;;;;;18.58;3.38;;;11.80;93.20;;;;;;4994918;28;20034;-35
2023/11/20 09:28:19;;;;;;;17.83;3.30;;;11.90;93.10;;;;;;4994659;28;20026;-36
2023/11/20 09:30:45;;;;;;;15.27;3.38;;;11.90;93.00;;;;;;4994836;28;20058;-35
2023/11/20 09:33:10;;;;;;;15.60;3.35;;;11.90;92.80;;;;;;4994593;28;20069;-38
2023/11/20 09:35:36;;;;;;;16.13;3.42;;;11.90;92.70;;;;;;4994726;28;20022;-38
2023/11/20 09:38:04;;;;;;;17.30;3.53;;;11.80;92.70;;;;;;4992123;28;20018;-39
2023/11/20 09:40:30;;;;;;;17.40;3.70;;;11.80;92.70;;;;;;4994623;28;20027;-34
2023/11/20 09:42:57;;;;;;;20.67;3.90;;;11.80;92.70;;;;;;4994499;28;20072;-38
2023/11/20 09:45:27;;;;;;;24.83;3.92;;;11.80;92.50;;;;;;4994725;28;20026;-34
2023/11/20 09:47:57;;;;;;;14.90;3.35;;;11.80;92.80;;;;;;4994177;28;20115;-39
2023/11/20 09:50:28;;;;;;;15.15;3.08;;;11.80;92.50;;;;;;4994318;28;20030;-34
2023/11/20 09:52:55;;;;;;;12.45;2.90;;;11.80;92.50;;;;;;4994316;28;20424;-38
2023/11/20 09:55:22;;;;;;;18.15;3.50;;;11.80;92.60;;;;;;4994210;28;20064;-39
2023/11/20 09:57:49;;;;;;;17.13;3.70;;;11.80;92.50;;;;;;4994332;28;20015;-39
2023/11/20 10:00:17;;;;;;;12.93;3.33;;;11.80;92.50;;;;;;4994225;28;20022;-38
2023/11/20 10:02:45;;;;;;;17.90;3.30;;;11.90;92.60;;;;;;4994190;28;20030;-32
2023/11/20 10:05:17;;;;;;;16.88;4.03;;;12.00;92.50;;;;;;4994223;28;20023;-35
2023/11/20 10:07:44;;;;;;;23.13;4.28;;;12.00;92.30;;;;;;4992684;28;20061;-32
2023/11/20 10:10:12;;;;;;;14.65;3.88;;;12.00;92.30;;;;;;4994134;28;20026;-32
2023/11/20 10:12:39;;;;;;;19.27;4.45;;;11.90;92.20;;;;;;4993891;28;20018;-32
2023/11/20 10:15:06;;;;;;;16.55;3.92;;;12.00;92.30;;;;;;4994018;28;20030;-35
2023/11/20 10:17:36;;;;;;;22.30;4.55;;;12.00;92.30;;;;;;4993978;28;20068;-34
2023/11/20 10:20:02;;;;;;;16.60;3.97;;;12.00;92.10;;;;;;4993526;28;20030;-33
2023/11/20 10:22:34;;;;;;;19.20;4.82;;;11.90;92.20;;;;;;4993799;28;20050;-37
2023/11/20 10:25:03;;;;;;;12.30;4.13;;;12.00;92.20;;;;;;4993887;28;20034;-39
2023/11/20 10:27:31;;;;;;;22.20;4.95;;;12.00;92.20;;;;;;4993887;28;20022;-37
2023/11/20 10:29:56;;;;;;;15.63;3.95;;;12.00;92.10;;;;;;4993594;28;20116;-35
2023/11/20 10:32:24;;;;;;;14.48;4.10;;;12.10;92.10;;;;;;4993536;28;20030;-37
2023/11/20 10:35:16;;;;;;;15.18;4.28;;;12.10;92.00;;;;;;4993853;28;20018;-35
2023/11/20 10:37:59;;;;;;;21.45;4.32;;;12.10;91.90;;;;;;4993327;28;20073;-41
2023/11/20 10:40:28;;;;;;;14.30;3.90;;;12.10;91.90;;;;;;4993342;28;20070;-38
2023/11/20 10:42:54;;;;;;;14.00;3.78;;;12.10;91.90;;;;;;4993598;28;20030;-33
2023/11/20 10:45:22;;;;;;;16.27;4.70;;;12.10;91.90;;;;;;4993334;28;20026;-39
2023/11/20 10:47:49;;;;;;;19.88;5.20;;;12.00;91.90;;;;;;4993205;28;20497;-36
2023/11/20 10:50:15;;;;;;;18.90;4.93;;;12.00;92.00;;;;;;4993060;28;20027;-37
2023/11/20 10:52:42;;;;;;;17.60;5.15;;;12.00;92.30;;;;;;4993146;28;20235;-36
2023/11/20 10:55:11;;;;;;;18.17;5.30;;;12.00;92.10;;;;;;4993430;28;20093;-38
2023/11/20 10:57:41;;;;;;;17.90;5.40;;;12.00;92.00;;;;;;4993295;28;20154;-39
2023/11/20 11:00:11;;;;;;;15.23;5.43;;;12.00;92.00;;;;;;4993029;28;20034;-38
2023/11/20 11:02:38;;;;;;;19.83;5.65;;;12.00;91.90;;;;;;4992725;28;20034;-36
2023/11/20 11:05:10;;;;;;;19.45;5.72;;;12.00;91.80;;;;;;4993430;28;20027;-33
2023/11/20 11:07:40;;;;;;;18.75;5.30;;;12.10;91.80;;;;;;4992926;28;20116;-34
2023/11/20 11:10:14;;;;;;;17.52;5.65;;;12.10;91.70;;;;;;4992773;28;20084;-35
2023/11/20 11:12:44;;;;;;;15.70;4.82;;;12.30;91.70;;;;;;4992732;28;20494;-36
2023/11/20 11:15:15;;;;;;;13.95;5.18;;;12.30;91.40;;;;;;4993017;28;20105;-34
2023/11/20 11:18:14;;;;;;;13.30;5.18;;;12.40;91.40;;;;;;4992569;28;20102;-35
2023/11/20 11:20:47;;;;;;;16.35;5.50;;;12.50;91.20;;;;;;4985201;28;20034;-36
2023/11/20 11:23:16;;;;;;;15.18;5.53;;;12.50;91.10;;;;;;4992712;28;20569;-35
2023/11/20 11:25:53;;;;;;;14.57;5.20;;;12.60;91.00;;;;;;4992640;28;20023;-33
2023/11/20 11:28:20;;;;;;;14.80;5.28;;;12.50;90.90;;;;;;4992457;28;20054;-34
2023/11/20 11:30:47;;;;;;;14.60;5.43;;;12.50;90.90;;;;;;4992824;28;20034;-35
2023/11/20 11:33:24;;;;;;;14.13;5.10;;;12.50;90.60;;;;;;4992523;28;20034;-34
2023/11/20 11:35:56;;;;;;;16.38;5.00;;;12.50;90.70;;;;;;4992673;28;20655;-38
2023/11/20 11:38:38;;;;;;;13.18;4.93;;;12.50;90.70;;;;;;4992421;28;20033;-38
2023/11/20 11:41:13;;;;;;;13.93;5.10;;;12.60;90.60;;;;;;4992358;28;20049;-33
2023/11/20 11:44:10;;;;;;;16.02;5.05;;;12.60;90.40;;;;;;4991171;28;20465;-34
2023/11/20 11:46:36;;;;;;;14.20;4.68;;;12.60;90.40;;;;;;4992274;28;20023;-39
2023/11/20 11:49:21;;;;;;;15.27;4.93;;;12.60;90.30;;;;;;4992247;28;20095;-35
2023/11/20 11:51:57;;;;;;;16.60;4.95;;;12.60;89.80;;;;;;4992213;28;20033;-32
2023/11/20 11:54:24;;;;;;;16.48;4.50;;;12.60;89.60;;;;;;4992358;28;20505;-35
2023/11/20 11:56:49;;;;;;;10.85;4.38;;;12.50;89.80;;;;;;4992421;28;20546;-38
2023/11/20 11:59:40;;;;;;;17.67;4.20;;;12.60;90.00;;;;;;4992383;28;20097;-36
2023/11/20 12:02:10;;;;;;;13.00;4.20;;;12.60;90.00;;;;;;4998622;28;20129;-37
2023/11/20 12:04:57;;;;;;;12.75;4.32;;;12.60;90.00;;;;;;4998864;28;20049;-35
2023/11/20 12:07:40;;;;;;;11.18;3.33;;;12.60;90.00;;;;;;4998667;28;20057;-36
2023/11/20 12:10:13;;;;;;;10.88;3.85;;;12.60;89.90;;;;;;4998640;28;20074;-36
2023/11/20 12:12:48;;;;;;;16.00;3.53;;;12.50;89.80;;;;;;4997366;28;20088;-35
2023/11/20 12:15:38;;;;;;;13.25;3.47;;;12.50;89.40;;;;;;4997097;28;20053;-40
2023/11/20 12:18:15;;;;;;;11.82;3.05;;;12.50;89.50;;;;;;4998356;28;20088;-38
2023/11/20 12:20:58;;;;;;;10.07;3.13;;;12.40;89.10;;;;;;4998798;28;20050;-35
2023/11/20 12:23:32;;;;;;;15.27;3.10;;;12.40;89.00;;;;;;4998536;28;20029;-34
2023/11/20 12:25:59;;;;;;;7.95;2.70;;;12.50;88.70;;;;;;4998791;28;20030;-38
2023/11/20 12:28:25;;;;;;;13.90;2.90;;;12.50;88.60;;;;;;4998462;28;20026;-36
2023/11/20 12:30:54;;;;;;;11.32;2.67;;;12.60;88.60;;;;;;4998455;28;20150;-33
2023/11/20 12:33:23;;;;;;;12.60;2.65;;;12.70;88.60;;;;;;4998779;28;20037;-38
2023/11/20 12:35:50;;;;;;;8.95;2.80;;;12.80;87.90;;;;;;4998467;28;20034;-37
2023/11/20 12:38:16;;;;;;;9.40;2.67;;;12.90;87.40;;;;;;4998355;28;20029;-34